Terminal Aerodrome Forecast
Issued by NWS Charleston, WV

Current Version | Previous Version | Text Only | Print | Product List | Glossary Off
Versions: 1 2 3 4 5 6 7 8 9 10 11 12 13 14 15 16 17 18 19 20

425
FTUS41 KRLX 200551
TAFBKW
TAF
KBKW 200551Z 2006/2106 21003KT P6SM FEW250
     FM201600 29007KT P6SM SCT060
     FM210100 21003KT P6SM SCT250=

USA.gov is the U.S. government's official web portal to all federal, state and local government web resources and services.